sensor_id;sensor_type;location;lat;lon;timestamp;temperature;humidity
17421;DHT22;8828;48.800;9.540;2023-03-02T00:01:28;4.70;87.90
17421;DHT22;8828;48.800;9.540;2023-03-02T00:03:58;4.70;88.20
17421;DHT22;8828;48.800;9.540;2023-03-02T00:06:28;4.60;88.40
17421;DHT22;8828;48.800;9.540;2023-03-02T00:08:58;4.60;88.50
17421;DHT22;8828;48.800;9.540;2023-03-02T00:11:29;4.60;88.70
17421;DHT22;8828;48.800;9.540;2023-03-02T00:13:57;4.50;88.90
17421;DHT22;8828;48.800;9.540;2023-03-02T00:16:25;4.50;89.20
17421;DHT22;8828;48.800;9.540;2023-03-02T00:18:53;4.40;89.40
17421;DHT22;8828;48.800;9.540;2023-03-02T00:21:21;4.40;90.00
17421;DHT22;8828;48.800;9.540;2023-03-02T00:23:50;4.40;90.00
17421;DHT22;8828;48.800;9.540;2023-03-02T00:26:18;4.40;90.20
17421;DHT22;8828;48.800;9.540;2023-03-02T00:28:48;4.30;90.30
17421;DHT22;8828;48.800;9.540;2023-03-02T00:31:16;4.30;90.30
17421;DHT22;8828;48.800;9.540;2023-03-02T00:33:44;4.20;90.50
17421;DHT22;8828;48.800;9.540;2023-03-02T00:36:15;4.20;91.00
17421;DHT22;8828;48.800;9.540;2023-03-02T00:38:43;4.20;90.80
17421;DHT22;8828;48.800;9.540;2023-03-02T00:41:13;4.10;91.10
17421;DHT22;8828;48.800;9.540;2023-03-02T00:43:41;4.10;91.20
17421;DHT22;8828;48.800;9.540;2023-03-02T00:46:11;4.10;91.20
17421;DHT22;8828;48.800;9.540;2023-03-02T00:48:40;4.10;91.30
17421;DHT22;8828;48.800;9.540;2023-03-02T00:51:08;4.10;91.50
17421;DHT22;8828;48.800;9.540;2023-03-02T00:53:37;4.10;91.60
17421;DHT22;8828;48.800;9.540;2023-03-02T00:56:06;4.10;91.60
17421;DHT22;8828;48.800;9.540;2023-03-02T00:58:34;4.20;91.70
17421;DHT22;8828;48.800;9.540;2023-03-02T01:01:05;4.20;91.70
17421;DHT22;8828;48.800;9.540;2023-03-02T01:03:35;4.20;91.70
17421;DHT22;8828;48.800;9.540;2023-03-02T01:06:03;4.10;91.60
17421;DHT22;8828;48.800;9.540;2023-03-02T01:08:31;4.10;91.70
17421;DHT22;8828;48.800;9.540;2023-03-02T01:10:59;4.10;91.70
17421;DHT22;8828;48.800;9.540;2023-03-02T01:13:28;4.00;92.10
17421;DHT22;8828;48.800;9.540;2023-03-02T01:16:00;4.00;92.20
17421;DHT22;8828;48.800;9.540;2023-03-02T01:18:28;4.00;92.00
17421;DHT22;8828;48.800;9.540;2023-03-02T01:21:01;4.00;92.10
17421;DHT22;8828;48.800;9.540;2023-03-02T01:23:29;4.00;92.30
17421;DHT22;8828;48.800;9.540;2023-03-02T01:25:57;4.00;92.30
17421;DHT22;8828;48.800;9.540;2023-03-02T01:28:25;3.90;92.40
17421;DHT22;8828;48.800;9.540;2023-03-02T01:30:53;3.90;92.60
17421;DHT22;8828;48.800;9.540;2023-03-02T01:33:21;3.90;92.80
17421;DHT22;8828;48.800;9.540;2023-03-02T01:35:49;3.80;92.70
17421;DHT22;8828;48.800;9.540;2023-03-02T01:38:19;3.80;92.90
17421;DHT22;8828;48.800;9.540;2023-03-02T01:40:47;3.80;92.90
17421;DHT22;8828;48.800;9.540;2023-03-02T01:43:15;3.80;93.10
17421;DHT22;8828;48.800;9.540;2023-03-02T01:45:50;3.80;93.60
17421;DHT22;8828;48.800;9.540;2023-03-02T01:48:22;3.70;93.40
17421;DHT22;8828;48.800;9.540;2023-03-02T01:50:53;3.70;93.40
17421;DHT22;8828;48.800;9.540;2023-03-02T01:53:24;3.70;93.60
17421;DHT22;8828;48.800;9.540;2023-03-02T01:55:54;3.70;93.60
17421;DHT22;8828;48.800;9.540;2023-03-02T01:58:24;3.70;93.60
17421;DHT22;8828;48.800;9.540;2023-03-02T02:00:53;3.70;93.70
17421;DHT22;8828;48.800;9.540;2023-03-02T02:03:25;3.70;93.80
17421;DHT22;8828;48.800;9.540;2023-03-02T02:05:59;3.70;93.80
17421;DHT22;8828;48.800;9.540;2023-03-02T02:08:31;3.70;93.90
17421;DHT22;8828;48.800;9.540;2023-03-02T02:11:00;3.70;93.90
17421;DHT22;8828;48.800;9.540;2023-03-02T02:13:29;3.60;94.00
17421;DHT22;8828;48.800;9.540;2023-03-02T02:15:57;3.60;94.00
17421;DHT22;8828;48.800;9.540;2023-03-02T02:18:25;3.50;94.30
17421;DHT22;8828;48.800;9.540;2023-03-02T02:20:54;3.50;94.30
17421;DHT22;8828;48.800;9.540;2023-03-02T02:23:25;3.50;94.60
17421;DHT22;8828;48.800;9.540;2023-03-02T02:26:13;3.50;94.70
17421;DHT22;8828;48.800;9.540;2023-03-02T02:28:48;3.40;94.80
17421;DHT22;8828;48.800;9.540;2023-03-02T02:31:20;3.40;95.10
17421;DHT22;8828;48.800;9.540;2023-03-02T02:33:55;3.30;95.20
17421;DHT22;8828;48.800;9.540;2023-03-02T02:36:28;3.30;95.30
17421;DHT22;8828;48.800;9.540;2023-03-02T02:39:02;3.30;95.30
17421;DHT22;8828;48.800;9.540;2023-03-02T02:41:34;3.30;95.30
17421;DHT22;8828;48.800;9.540;2023-03-02T02:44:03;3.30;95.40
17421;DHT22;8828;48.800;9.540;2023-03-02T02:46:32;3.30;95.40
17421;DHT22;8828;48.800;9.540;2023-03-02T02:49:01;3.30;95.40
17421;DHT22;8828;48.800;9.540;2023-03-02T02:51:30;3.40;95.50
17421;DHT22;8828;48.800;9.540;2023-03-02T02:54:00;3.40;95.70
17421;DHT22;8828;48.800;9.540;2023-03-02T02:56:32;3.30;95.60
17421;DHT22;8828;48.800;9.540;2023-03-02T02:59:03;3.30;95.70
17421;DHT22;8828;48.800;9.540;2023-03-02T03:01:33;3.30;95.70
17421;DHT22;8828;48.800;9.540;2023-03-02T03:04:03;3.30;95.80
17421;DHT22;8828;48.800;9.540;2023-03-02T03:06:33;3.20;95.90
17421;DHT22;8828;48.800;9.540;2023-03-02T03:09:08;3.20;96.00
17421;DHT22;8828;48.800;9.540;2023-03-02T03:11:40;3.20;96.20
17421;DHT22;8828;48.800;9.540;2023-03-02T03:14:10;3.20;96.20
17421;DHT22;8828;48.800;9.540;2023-03-02T03:16:41;3.20;96.20
17421;DHT22;8828;48.800;9.540;2023-03-02T03:19:14;3.20;96.30
17421;DHT22;8828;48.800;9.540;2023-03-02T03:21:43;3.10;96.40
17421;DHT22;8828;48.800;9.540;2023-03-02T03:24:11;3.10;96.50
17421;DHT22;8828;48.800;9.540;2023-03-02T03:26:41;3.10;96.50
17421;DHT22;8828;48.800;9.540;2023-03-02T03:29:09;3.10;96.60
17421;DHT22;8828;48.800;9.540;2023-03-02T03:31:37;3.10;96.60
17421;DHT22;8828;48.800;9.540;2023-03-02T03:34:06;3.10;96.60
17421;DHT22;8828;48.800;9.540;2023-03-02T03:36:34;3.00;96.80
17421;DHT22;8828;48.800;9.540;2023-03-02T03:39:04;3.00;96.70
17421;DHT22;8828;48.800;9.540;2023-03-02T03:41:32;3.00;96.80
17421;DHT22;8828;48.800;9.540;2023-03-02T03:44:02;3.00;96.90
17421;DHT22;8828;48.800;9.540;2023-03-02T03:46:30;3.00;97.00
17421;DHT22;8828;48.800;9.540;2023-03-02T03:48:59;3.00;97.10
17421;DHT22;8828;48.800;9.540;2023-03-02T03:51:27;2.90;97.00
17421;DHT22;8828;48.800;9.540;2023-03-02T03:53:55;2.90;97.20
17421;DHT22;8828;48.800;9.540;2023-03-02T03:56:32;2.90;97.30
17421;DHT22;8828;48.800;9.540;2023-03-02T03:59:02;2.90;97.50
17421;DHT22;8828;48.800;9.540;2023-03-02T04:01:34;2.90;97.50
17421;DHT22;8828;48.800;9.540;2023-03-02T04:04:05;2.80;97.50
17421;DHT22;8828;48.800;9.540;2023-03-02T04:06:33;2.80;97.50
17421;DHT22;8828;48.800;9.540;2023-03-02T04:09:02;2.80;97.60
17421;DHT22;8828;48.800;9.540;2023-03-02T04:11:30;2.80;97.90
17421;DHT22;8828;48.800;9.540;2023-03-02T04:13:58;2.70;98.10
17421;DHT22;8828;48.800;9.540;2023-03-02T04:16:28;2.70;98.20
17421;DHT22;8828;48.800;9.540;2023-03-02T04:18:57;2.60;98.50
17421;DHT22;8828;48.800;9.540;2023-03-02T04:21:25;2.60;98.70
17421;DHT22;8828;48.800;9.540;2023-03-02T04:23:54;2.60;99.00
17421;DHT22;8828;48.800;9.540;2023-03-02T04:26:22;2.50;99.10
17421;DHT22;8828;48.800;9.540;2023-03-02T04:28:51;2.40;99.30
17421;DHT22;8828;48.800;9.540;2023-03-02T04:31:19;2.40;99.80
17421;DHT22;8828;48.800;9.540;2023-03-02T04:33:49;2.40;99.90
17421;DHT22;8828;48.800;9.540;2023-03-02T04:36:17;2.40;99.90
17421;DHT22;8828;48.800;9.540;2023-03-02T04:38:45;2.40;99.90
17421;DHT22;8828;48.800;9.540;2023-03-02T04:41:15;2.50;99.90
17421;DHT22;8828;48.800;9.540;2023-03-02T04:43:43;2.40;99.90
17421;DHT22;8828;48.800;9.540;2023-03-02T04:46:13;2.50;99.90
17421;DHT22;8828;48.800;9.540;2023-03-02T04:48:42;2.50;99.90
17421;DHT22;8828;48.800;9.540;2023-03-02T04:51:15;2.50;99.90
17421;DHT22;8828;48.800;9.540;2023-03-02T04:53:44;2.60;99.90
17421;DHT22;8828;48.800;9.540;2023-03-02T04:56:12;2.50;99.90
17421;DHT22;8828;48.800;9.540;2023-03-02T04:58:40;2.50;99.90
17421;DHT22;8828;48.800;9.540;2023-03-02T05:01:08;2.50;99.90
17421;DHT22;8828;48.800;9.540;2023-03-02T05:03:36;2.60;99.90
17421;DHT22;8828;48.800;9.540;2023-03-02T05:06:04;2.50;99.90
17421;DHT22;8828;48.800;9.540;2023-03-02T05:08:34;2.50;99.90
17421;DHT22;8828;48.800;9.540;2023-03-02T05:11:02;2.50;99.90
17421;DHT22;8828;48.800;9.540;2023-03-02T05:13:30;2.50;99.90
17421;DHT22;8828;48.800;9.540;2023-03-02T05:15:58;2.50;99.90
17421;DHT22;8828;48.800;9.540;2023-03-02T05:18:27;2.50;99.90
17421;DHT22;8828;48.800;9.540;2023-03-02T05:20:55;2.50;99.90
17421;DHT22;8828;48.800;9.540;2023-03-02T05:23:23;2.50;99.90
17421;DHT22;8828;48.800;9.540;2023-03-02T05:25:55;2.40;99.90
17421;DHT22;8828;48.800;9.540;2023-03-02T05:28:24;2.40;99.90
17421;DHT22;8828;48.800;9.540;2023-03-02T05:30:53;2.40;99.90
17421;DHT22;8828;48.800;9.540;2023-03-02T05:33:21;2.50;99.90
17421;DHT22;8828;48.800;9.540;2023-03-02T05:35:49;2.40;99.90
17421;DHT22;8828;48.800;9.540;2023-03-02T05:38:17;2.40;99.90
17421;DHT22;8828;48.800;9.540;2023-03-02T05:40:45;2.40;99.90
17421;DHT22;8828;48.800;9.540;2023-03-02T05:43:17;2.40;99.90
17421;DHT22;8828;48.800;9.540;2023-03-02T05:45:45;2.40;99.90
17421;DHT22;8828;48.800;9.540;2023-03-02T05:48:13;2.30;99.90
17421;DHT22;8828;48.800;9.540;2023-03-02T05:50:41;2.30;99.90
17421;DHT22;8828;48.800;9.540;2023-03-02T05:53:09;2.30;99.90
17421;DHT22;8828;48.800;9.540;2023-03-02T05:55:37;2.20;99.90
17421;DHT22;8828;48.800;9.540;2023-03-02T05:58:06;2.20;99.90
17421;DHT22;8828;48.800;9.540;2023-03-02T06:00:36;2.20;99.90
17421;DHT22;8828;48.800;9.540;2023-03-02T06:03:04;2.20;99.90
17421;DHT22;8828;48.800;9.540;2023-03-02T06:05:32;2.10;99.90
17421;DHT22;8828;48.800;9.540;2023-03-02T06:08:00;2.10;99.90
17421;DHT22;8828;48.800;9.540;2023-03-02T06:10:29;2.10;99.90
17421;DHT22;8828;48.800;9.540;2023-03-02T06:12:56;2.10;99.90
17421;DHT22;8828;48.800;9.540;2023-03-02T06:15:25;2.10;99.90
17421;DHT22;8828;48.800;9.540;2023-03-02T06:17:56;2.10;99.90
17421;DHT22;8828;48.800;9.540;2023-03-02T06:20:25;2.10;99.90
17421;DHT22;8828;48.800;9.540;2023-03-02T06:22:53;2.20;99.90
17421;DHT22;8828;48.800;9.540;2023-03-02T06:25:22;2.20;99.90
17421;DHT22;8828;48.800;9.540;2023-03-02T06:27:51;2.20;99.90
17421;DHT22;8828;48.800;9.540;2023-03-02T06:30:21;2.20;99.90
17421;DHT22;8828;48.800;9.540;2023-03-02T06:32:50;2.20;99.90
17421;DHT22;8828;48.800;9.540;2023-03-02T06:35:19;2.20;99.90
17421;DHT22;8828;48.800;9.540;2023-03-02T06:37:49;2.10;99.90
17421;DHT22;8828;48.800;9.540;2023-03-02T06:40:17;2.20;99.90
17421;DHT22;8828;48.800;9.540;2023-03-02T06:42:47;2.20;99.90
17421;DHT22;8828;48.800;9.540;2023-03-02T06:45:15;2.20;99.90
17421;DHT22;8828;48.800;9.540;2023-03-02T06:47:43;2.30;99.90
17421;DHT22;8828;48.800;9.540;2023-03-02T06:50:11;2.30;99.90
17421;DHT22;8828;48.800;9.540;2023-03-02T06:52:40;2.30;99.90
17421;DHT22;8828;48.800;9.540;2023-03-02T06:55:08;2.30;99.90
17421;DHT22;8828;48.800;9.540;2023-03-02T06:57:37;2.40;99.90
17421;DHT22;8828;48.800;9.540;2023-03-02T07:00:06;2.40;99.90
17421;DHT22;8828;48.800;9.540;2023-03-02T07:02:35;2.40;99.90
17421;DHT22;8828;48.800;9.540;2023-03-02T07:05:04;2.50;99.90
17421;DHT22;8828;48.800;9.540;2023-03-02T07:07:33;2.50;99.90
17421;DHT22;8828;48.800;9.540;2023-03-02T07:10:03;2.60;99.90
17421;DHT22;8828;48.800;9.540;2023-03-02T07:12:31;2.60;99.90
17421;DHT22;8828;48.800;9.540;2023-03-02T07:14:59;2.70;99.90
17421;DHT22;8828;48.800;9.540;2023-03-02T07:17:27;2.80;99.90
17421;DHT22;8828;48.800;9.540;2023-03-02T07:19:55;2.90;99.90
17421;DHT22;8828;48.800;9.540;2023-03-02T07:22:23;3.00;99.90
17421;DHT22;8828;48.800;9.540;2023-03-02T07:24:51;3.10;99.90
17421;DHT22;8828;48.800;9.540;2023-03-02T07:27:20;3.20;99.90
17421;DHT22;8828;48.800;9.540;2023-03-02T07:29:48;3.30;99.90
17421;DHT22;8828;48.800;9.540;2023-03-02T07:32:16;3.40;99.90
17421;DHT22;8828;48.800;9.540;2023-03-02T07:34:44;3.50;99.90
17421;DHT22;8828;48.800;9.540;2023-03-02T07:37:12;3.60;99.90
17421;DHT22;8828;48.800;9.540;2023-03-02T07:39:40;3.70;99.90
17421;DHT22;8828;48.800;9.540;2023-03-02T07:42:10;3.80;99.90
17421;DHT22;8828;48.800;9.540;2023-03-02T07:44:39;3.90;99.90
17421;DHT22;8828;48.800;9.540;2023-03-02T07:47:08;3.90;99.90
17421;DHT22;8828;48.800;9.540;2023-03-02T07:49:36;4.10;99.90
17421;DHT22;8828;48.800;9.540;2023-03-02T07:52:04;4.30;99.90
17421;DHT22;8828;48.800;9.540;2023-03-02T07:54:32;4.40;99.90
17421;DHT22;8828;48.800;9.540;2023-03-02T07:57:00;4.70;99.90
17421;DHT22;8828;48.800;9.540;2023-03-02T07:59:28;4.90;99.90
17421;DHT22;8828;48.800;9.540;2023-03-02T08:01:58;5.20;99.90
17421;DHT22;8828;48.800;9.540;2023-03-02T08:04:26;5.40;99.90
17421;DHT22;8828;48.800;9.540;2023-03-02T08:06:54;5.50;99.90
17421;DHT22;8828;48.800;9.540;2023-03-02T08:09:22;5.70;99.90
17421;DHT22;8828;48.800;9.540;2023-03-02T08:11:49;5.90;99.90
17421;DHT22;8828;48.800;9.540;2023-03-02T08:14:17;6.00;99.90
17421;DHT22;8828;48.800;9.540;2023-03-02T08:16:45;6.10;99.90
17421;DHT22;8828;48.800;9.540;2023-03-02T08:19:15;6.30;99.90
17421;DHT22;8828;48.800;9.540;2023-03-02T08:21:43;6.60;99.90
17421;DHT22;8828;48.800;9.540;2023-03-02T08:24:11;6.80;99.90
17421;DHT22;8828;48.800;9.540;2023-03-02T08:26:39;7.00;99.70
17421;DHT22;8828;48.800;9.540;2023-03-02T08:29:07;7.30;99.90
17421;DHT22;8828;48.800;9.540;2023-03-02T08:31:36;7.50;99.20
17421;DHT22;8828;48.800;9.540;2023-03-02T08:34:04;7.80;98.10
17421;DHT22;8828;48.800;9.540;2023-03-02T08:36:33;8.00;97.20
17421;DHT22;8828;48.800;9.540;2023-03-02T08:39:01;8.20;96.80
17421;DHT22;8828;48.800;9.540;2023-03-02T08:41:29;8.40;96.30
17421;DHT22;8828;48.800;9.540;2023-03-02T08:43:58;8.70;95.80
17421;DHT22;8828;48.800;9.540;2023-03-02T08:46:25;8.90;95.10
17421;DHT22;8828;48.800;9.540;2023-03-02T08:48:53;9.10;94.60
17421;DHT22;8828;48.800;9.540;2023-03-02T08:51:23;9.30;94.30
17421;DHT22;8828;48.800;9.540;2023-03-02T08:53:53;9.50;93.80
17421;DHT22;8828;48.800;9.540;2023-03-02T08:56:24;9.70;93.50
17421;DHT22;8828;48.800;9.540;2023-03-02T08:58:53;9.90;93.60
17421;DHT22;8828;48.800;9.540;2023-03-02T09:01:23;10.10;92.80
17421;DHT22;8828;48.800;9.540;2023-03-02T09:03:52;10.30;92.00
17421;DHT22;8828;48.800;9.540;2023-03-02T09:06:20;10.40;91.50
17421;DHT22;8828;48.800;9.540;2023-03-02T09:08:48;10.70;91.30
17421;DHT22;8828;48.800;9.540;2023-03-02T09:11:18;11.00;90.90
17421;DHT22;8828;48.800;9.540;2023-03-02T09:13:46;11.30;90.40
17421;DHT22;8828;48.800;9.540;2023-03-02T09:16:14;11.60;89.80
17421;DHT22;8828;48.800;9.540;2023-03-02T09:18:42;12.00;88.50
17421;DHT22;8828;48.800;9.540;2023-03-02T09:21:10;12.40;86.70
17421;DHT22;8828;48.800;9.540;2023-03-02T09:23:38;12.70;84.90
17421;DHT22;8828;48.800;9.540;2023-03-02T09:26:06;12.90;83.10
17421;DHT22;8828;48.800;9.540;2023-03-02T09:28:36;13.30;82.10
17421;DHT22;8828;48.800;9.540;2023-03-02T09:31:06;13.70;80.40
17421;DHT22;8828;48.800;9.540;2023-03-02T09:33:34;14.20;79.20
17421;DHT22;8828;48.800;9.540;2023-03-02T09:36:05;14.70;77.20
17421;DHT22;8828;48.800;9.540;2023-03-02T09:38:33;15.00;75.20
17421;DHT22;8828;48.800;9.540;2023-03-02T09:44:34;16.10;71.20
17421;DHT22;8828;48.800;9.540;2023-03-02T09:47:12;16.70;67.90
17421;DHT22;8828;48.800;9.540;2023-03-02T09:50:09;17.20;65.80
17421;DHT22;8828;48.800;9.540;2023-03-02T09:52:41;18.10;62.80
17421;DHT22;8828;48.800;9.540;2023-03-02T09:55:13;18.60;60.90
17421;DHT22;8828;48.800;9.540;2023-03-02T09:57:42;19.40;59.80
17421;DHT22;8828;48.800;9.540;2023-03-02T10:02:48;21.20;55.80
17421;DHT22;8828;48.800;9.540;2023-03-02T10:05:19;22.40;53.00
17421;DHT22;8828;48.800;9.540;2023-03-02T10:07:47;23.30;50.40
17421;DHT22;8828;48.800;9.540;2023-03-02T10:10:25;24.50;48.20
17421;DHT22;8828;48.800;9.540;2023-03-02T10:13:08;25.50;46.00
17421;DHT22;8828;48.800;9.540;2023-03-02T10:15:44;26.20;44.30
17421;DHT22;8828;48.800;9.540;2023-03-02T10:18:20;27.20;42.70
17421;DHT22;8828;48.800;9.540;2023-03-02T10:20:52;28.00;41.30
17421;DHT22;8828;48.800;9.540;2023-03-02T10:23:36;28.80;39.80
17421;DHT22;8828;48.800;9.540;2023-03-02T10:26:22;29.40;38.60
17421;DHT22;8828;48.800;9.540;2023-03-02T10:28:59;29.90;37.80
17421;DHT22;8828;48.800;9.540;2023-03-02T10:31:30;30.00;37.10
17421;DHT22;8828;48.800;9.540;2023-03-02T10:33:59;30.60;36.60
17421;DHT22;8828;48.800;9.540;2023-03-02T10:36:29;31.10;35.80
17421;DHT22;8828;48.800;9.540;2023-03-02T10:38:58;31.50;35.10
17421;DHT22;8828;48.800;9.540;2023-03-02T10:41:31;32.00;34.40
17421;DHT22;8828;48.800;9.540;2023-03-02T10:44:03;32.30;33.90
17421;DHT22;8828;48.800;9.540;2023-03-02T10:46:40;32.70;33.50
17421;DHT22;8828;48.800;9.540;2023-03-02T10:49:24;32.80;33.00
17421;DHT22;8828;48.800;9.540;2023-03-02T10:51:59;33.20;32.50
17421;DHT22;8828;48.800;9.540;2023-03-02T10:54:28;32.70;32.30
17421;DHT22;8828;48.800;9.540;2023-03-02T10:56:59;32.80;32.40
17421;DHT22;8828;48.800;9.540;2023-03-02T10:59:42;33.20;32.30
17421;DHT22;8828;48.800;9.540;2023-03-02T11:02:18;33.60;31.70
17421;DHT22;8828;48.800;9.540;2023-03-02T11:04:53;34.00;31.30
17421;DHT22;8828;48.800;9.540;2023-03-02T11:07:25;34.10;30.90
17421;DHT22;8828;48.800;9.540;2023-03-02T11:10:00;34.20;31.00
17421;DHT22;8828;48.800;9.540;2023-03-02T11:12:30;34.40;30.80
17421;DHT22;8828;48.800;9.540;2023-03-02T11:15:23;34.70;30.40
17421;DHT22;8828;48.800;9.540;2023-03-02T11:18:01;35.20;30.30
17421;DHT22;8828;48.800;9.540;2023-03-02T11:20:35;35.60;30.10
17421;DHT22;8828;48.800;9.540;2023-03-02T11:23:14;35.40;29.90
17421;DHT22;8828;48.800;9.540;2023-03-02T11:25:46;35.20;29.90
17421;DHT22;8828;48.800;9.540;2023-03-02T11:28:24;35.00;29.90
17421;DHT22;8828;48.800;9.540;2023-03-02T11:30:58;35.20;29.80
17421;DHT22;8828;48.800;9.540;2023-03-02T11:33:33;35.30;29.80
17421;DHT22;8828;48.800;9.540;2023-03-02T11:36:06;35.20;29.80
17421;DHT22;8828;48.800;9.540;2023-03-02T11:38:42;35.50;29.60
17421;DHT22;8828;48.800;9.540;2023-03-02T11:41:23;35.80;29.50
17421;DHT22;8828;48.800;9.540;2023-03-02T11:43:53;36.00;29.40
17421;DHT22;8828;48.800;9.540;2023-03-02T11:46:24;36.20;29.30
17421;DHT22;8828;48.800;9.540;2023-03-02T11:48:55;36.30;28.90
17421;DHT22;8828;48.800;9.540;2023-03-02T11:51:26;36.40;28.80
17421;DHT22;8828;48.800;9.540;2023-03-02T11:53:58;36.40;28.70
17421;DHT22;8828;48.800;9.540;2023-03-02T11:56:29;35.90;29.40
17421;DHT22;8828;48.800;9.540;2023-03-02T11:59:01;35.60;29.00
17421;DHT22;8828;48.800;9.540;2023-03-02T12:01:32;35.60;29.00
17421;DHT22;8828;48.800;9.540;2023-03-02T12:04:09;36.00;29.00
17421;DHT22;8828;48.800;9.540;2023-03-02T12:06:40;36.20;29.10
17421;DHT22;8828;48.800;9.540;2023-03-02T12:09:25;36.00;28.90
17421;DHT22;8828;48.800;9.540;2023-03-02T12:11:59;35.80;29.00
17421;DHT22;8828;48.800;9.540;2023-03-02T12:14:38;35.50;29.30
17421;DHT22;8828;48.800;9.540;2023-03-02T12:17:20;35.20;29.20
17421;DHT22;8828;48.800;9.540;2023-03-02T12:19:51;35.20;29.40
17421;DHT22;8828;48.800;9.540;2023-03-02T12:22:27;35.30;29.30
17421;DHT22;8828;48.800;9.540;2023-03-02T12:25:02;35.20;29.90
17421;DHT22;8828;48.800;9.540;2023-03-02T12:27:36;35.30;29.30
17421;DHT22;8828;48.800;9.540;2023-03-02T12:30:21;35.40;29.10
17421;DHT22;8828;48.800;9.540;2023-03-02T12:33:02;35.20;29.20
17421;DHT22;8828;48.800;9.540;2023-03-02T12:35:33;35.20;29.20
17421;DHT22;8828;48.800;9.540;2023-03-02T12:38:03;35.60;29.10
17421;DHT22;8828;48.800;9.540;2023-03-02T12:40:40;35.80;29.10
17421;DHT22;8828;48.800;9.540;2023-03-02T12:43:29;35.90;29.10
17421;DHT22;8828;48.800;9.540;2023-03-02T12:46:24;35.90;28.90
17421;DHT22;8828;48.800;9.540;2023-03-02T12:49:19;35.70;28.90
17421;DHT22;8828;48.800;9.540;2023-03-02T12:51:54;35.10;29.00
17421;DHT22;8828;48.800;9.540;2023-03-02T12:54:25;35.00;29.70
17421;DHT22;8828;48.800;9.540;2023-03-02T12:57:04;35.20;29.20
17421;DHT22;8828;48.800;9.540;2023-03-02T12:59:34;35.20;29.20
17421;DHT22;8828;48.800;9.540;2023-03-02T13:02:14;35.20;29.10
17421;DHT22;8828;48.800;9.540;2023-03-02T13:04:43;35.10;29.00
17421;DHT22;8828;48.800;9.540;2023-03-02T13:07:17;34.90;29.10
17421;DHT22;8828;48.800;9.540;2023-03-02T13:09:48;34.50;29.30
17421;DHT22;8828;48.800;9.540;2023-03-02T13:12:25;33.90;29.50
17421;DHT22;8828;48.800;9.540;2023-03-02T13:14:55;33.60;29.70
17421;DHT22;8828;48.800;9.540;2023-03-02T13:17:26;33.30;29.90
17421;DHT22;8828;48.800;9.540;2023-03-02T13:19:57;33.20;30.00
17421;DHT22;8828;48.800;9.540;2023-03-02T13:22:28;32.80;30.00
17421;DHT22;8828;48.800;9.540;2023-03-02T13:24:57;32.50;30.30
17421;DHT22;8828;48.800;9.540;2023-03-02T13:27:28;32.40;30.50
17421;DHT22;8828;48.800;9.540;2023-03-02T13:30:08;32.30;30.80
17421;DHT22;8828;48.800;9.540;2023-03-02T13:32:39;32.20;30.80
17421;DHT22;8828;48.800;9.540;2023-03-02T13:35:16;31.90;30.80
17421;DHT22;8828;48.800;9.540;2023-03-02T13:38:01;31.40;31.10
17421;DHT22;8828;48.800;9.540;2023-03-02T13:40:41;31.00;31.50
17421;DHT22;8828;48.800;9.540;2023-03-02T13:43:21;30.60;32.00
17421;DHT22;8828;48.800;9.540;2023-03-02T13:45:51;30.20;33.10
17421;DHT22;8828;48.800;9.540;2023-03-02T13:48:19;29.90;33.70
17421;DHT22;8828;48.800;9.540;2023-03-02T13:50:52;29.30;33.10
17421;DHT22;8828;48.800;9.540;2023-03-02T13:53:23;28.90;33.60
17421;DHT22;8828;48.800;9.540;2023-03-02T13:55:52;28.60;34.00
17421;DHT22;8828;48.800;9.540;2023-03-02T13:58:21;28.30;34.00
17421;DHT22;8828;48.800;9.540;2023-03-02T14:00:51;28.00;34.60
17421;DHT22;8828;48.800;9.540;2023-03-02T14:03:24;27.70;34.90
17421;DHT22;8828;48.800;9.540;2023-03-02T14:05:54;27.30;34.90
17421;DHT22;8828;48.800;9.540;2023-03-02T14:08:23;27.10;35.30
17421;DHT22;8828;48.800;9.540;2023-03-02T14:10:53;26.80;35.70
17421;DHT22;8828;48.800;9.540;2023-03-02T14:13:25;26.40;35.90
17421;DHT22;8828;48.800;9.540;2023-03-02T14:15:55;26.00;36.20
17421;DHT22;8828;48.800;9.540;2023-03-02T14:18:28;25.70;36.60
17421;DHT22;8828;48.800;9.540;2023-03-02T14:20:57;25.40;37.00
17421;DHT22;8828;48.800;9.540;2023-03-02T14:23:27;25.30;37.50
17421;DHT22;8828;48.800;9.540;2023-03-02T14:25:55;25.10;37.40
17421;DHT22;8828;48.800;9.540;2023-03-02T14:28:27;24.80;37.70
17421;DHT22;8828;48.800;9.540;2023-03-02T14:30:57;24.30;38.10
17421;DHT22;8828;48.800;9.540;2023-03-02T14:33:25;24.00;38.90
17421;DHT22;8828;48.800;9.540;2023-03-02T14:35:55;23.60;39.20
17421;DHT22;8828;48.800;9.540;2023-03-02T14:38:27;23.20;39.90
17421;DHT22;8828;48.800;9.540;2023-03-02T14:40:56;22.80;40.00
17421;DHT22;8828;48.800;9.540;2023-03-02T14:43:24;22.40;40.80
17421;DHT22;8828;48.800;9.540;2023-03-02T14:45:52;21.80;41.40
17421;DHT22;8828;48.800;9.540;2023-03-02T14:48:20;21.20;42.20
17421;DHT22;8828;48.800;9.540;2023-03-02T14:50:49;20.50;42.90
17421;DHT22;8828;48.800;9.540;2023-03-02T14:53:21;19.90;43.90
17421;DHT22;8828;48.800;9.540;2023-03-02T14:55:54;19.40;44.90
17421;DHT22;8828;48.800;9.540;2023-03-02T14:58:28;19.00;45.40
17421;DHT22;8828;48.800;9.540;2023-03-02T15:00:57;18.60;46.30
17421;DHT22;8828;48.800;9.540;2023-03-02T15:03:26;18.20;46.90
17421;DHT22;8828;48.800;9.540;2023-03-02T15:05:55;18.00;47.40
17421;DHT22;8828;48.800;9.540;2023-03-02T15:08:28;17.70;47.80
17421;DHT22;8828;48.800;9.540;2023-03-02T15:10:57;17.50;48.30
17421;DHT22;8828;48.800;9.540;2023-03-02T15:13:25;17.30;48.80
17421;DHT22;8828;48.800;9.540;2023-03-02T15:15:53;17.10;49.10
17421;DHT22;8828;48.800;9.540;2023-03-02T15:18:21;16.90;49.60
17421;DHT22;8828;48.800;9.540;2023-03-02T15:20:49;16.70;50.00
17421;DHT22;8828;48.800;9.540;2023-03-02T15:23:17;16.60;50.40
17421;DHT22;8828;48.800;9.540;2023-03-02T15:25:45;16.50;50.40
17421;DHT22;8828;48.800;9.540;2023-03-02T15:28:14;16.40;51.10
17421;DHT22;8828;48.800;9.540;2023-03-02T15:30:42;16.20;50.90
17421;DHT22;8828;48.800;9.540;2023-03-02T15:33:10;16.10;51.20
17421;DHT22;8828;48.800;9.540;2023-03-02T15:35:38;15.90;51.60
17421;DHT22;8828;48.800;9.540;2023-03-02T15:38:06;15.90;52.00
17421;DHT22;8828;48.800;9.540;2023-03-02T15:40:34;15.70;52.00
17421;DHT22;8828;48.800;9.540;2023-03-02T15:43:03;15.60;52.30
17421;DHT22;8828;48.800;9.540;2023-03-02T15:45:32;15.50;52.50
17421;DHT22;8828;48.800;9.540;2023-03-02T15:48:00;15.40;53.20
17421;DHT22;8828;48.800;9.540;2023-03-02T15:50:28;15.30;52.80
17421;DHT22;8828;48.800;9.540;2023-03-02T15:52:56;15.20;53.20
17421;DHT22;8828;48.800;9.540;2023-03-02T15:55:24;15.00;53.50
17421;DHT22;8828;48.800;9.540;2023-03-02T15:57:52;14.90;53.80
17421;DHT22;8828;48.800;9.540;2023-03-02T16:00:24;14.80;53.90
17421;DHT22;8828;48.800;9.540;2023-03-02T16:02:53;14.70;54.20
17421;DHT22;8828;48.800;9.540;2023-03-02T16:05:21;14.70;54.30
17421;DHT22;8828;48.800;9.540;2023-03-02T16:07:49;14.60;54.60
17421;DHT22;8828;48.800;9.540;2023-03-02T16:10:17;14.50;54.60
17421;DHT22;8828;48.800;9.540;2023-03-02T16:12:46;14.50;54.90
17421;DHT22;8828;48.800;9.540;2023-03-02T16:15:14;14.40;55.20
17421;DHT22;8828;48.800;9.540;2023-03-02T16:17:42;14.40;55.10
17421;DHT22;8828;48.800;9.540;2023-03-02T16:20:12;14.30;55.30
17421;DHT22;8828;48.800;9.540;2023-03-02T16:22:40;14.20;55.40